Time;durP1;ratioP1;P1;durP2;ratioP2;P2;SDS_P1;SDS_P2;PMS_P1;PMS_P2;Temp;Humidity;BMP_temperature;BMP_pressure;BME280_temperature;BME280_humidity;BME280_pressure;Samples;Min_cycle;Max_cycle;Signal;HPM_P1;HPM_P2
2023/11/19 00:00:37;;;;;;;;;;;;;;;4.12;100.00;100628.42;180543;1264;59389;-86
2023/11/19 00:05:00;;;;;;;;;;;;;;;4.18;100.00;100629.91;180449;1264;43695;-83
2023/11/19 00:09:03;;;;;;;;;;;;;;;4.14;100.00;100623.24;180479;1264;43908;-85
2023/11/19 00:13:07;;;;;;;;;;;;;;;4.13;100.00;100618.55;180619;1264;43604;-85
2023/11/19 00:17:10;;;;;;;;;;;;;;;4.11;100.00;100613.88;180556;1264;43897;-83
2023/11/19 00:21:13;;;;;;;;;;;;;;;4.02;100.00;100613.98;180506;1264;59439;-85
2023/11/19 00:25:16;;;;;;;;;;;;;;;3.86;100.00;100611.77;180495;1264;43824;-83
2023/11/19 00:29:20;;;;;;;;;;;;;;;3.83;100.00;100604.39;180646;1264;43455;-84
2023/11/19 00:33:22;;;;;;;;;;;;;;;3.81;100.00;100599.39;180613;1263;43885;-85
2023/11/19 00:37:26;;;;;;;;;;;;;;;3.87;100.00;100568.24;180428;1264;43969;-84
2023/11/19 00:41:30;;;;;;;;;;;;;;;3.90;100.00;100545.08;180436;1264;57953;-83
2023/11/19 00:45:33;;;;;;;;;;;;;;;3.85;100.00;100543.21;180600;1264;43588;-85
2023/11/19 00:49:36;;;;;;;;;;;;;;;3.84;100.00;100546.95;180587;1264;43820;-83
2023/11/19 00:53:39;;;;;;;;;;;;;;;3.81;100.00;100536.21;180582;1264;44014;-85
2023/11/19 00:57:42;;;;;;;;;;;;;;;3.77;100.00;100508.88;180618;1264;43818;-86
2023/11/19 01:01:45;;;;;;;;;;;;;;;3.82;100.00;100484.40;180586;1264;59043;-85
2023/11/19 01:05:48;;;;;;;;;;;;;;;3.79;100.00;100480.89;180600;1264;43800;-85
2023/11/19 01:09:51;;;;;;;;;;;;;;;3.77;100.00;100476.80;180621;1264;43827;-84
2023/11/19 01:13:54;;;;;;;;;;;;;;;3.80;100.00;100451.90;180509;1264;43585;-85
2023/11/19 01:17:57;;;;;;;;;;;;;;;3.81;100.00;100438.50;180485;1264;43735;-83
2023/11/19 01:22:00;;;;;;;;;;;;;;;3.84;100.00;100424.34;180606;1264;58355;-83
2023/11/19 01:26:05;;;;;;;;;;;;;;;3.84;100.00;100425.88;180602;1263;43833;-84
2023/11/19 01:30:15;;;;;;;;;;;;;;;3.81;100.00;100423.44;180572;1264;43572;-84
2023/11/19 01:34:17;;;;;;;;;;;;;;;3.82;100.00;100430.77;180596;1264;44112;-84
2023/11/19 01:38:21;;;;;;;;;;;;;;;3.84;100.00;100422.41;180636;1264;43780;-83
2023/11/19 01:42:25;;;;;;;;;;;;;;;3.83;100.00;100425.27;180650;1264;58081;-86
2023/11/19 01:46:29;;;;;;;;;;;;;;;3.86;100.00;100414.21;180468;1264;43587;-84
2023/11/19 01:50:33;;;;;;;;;;;;;;;3.87;100.00;100409.26;180604;1263;43537;-83
2023/11/19 01:54:36;;;;;;;;;;;;;;;3.90;100.00;100399.66;180552;1264;44072;-86
2023/11/19 01:58:40;;;;;;;;;;;;;;;3.90;100.00;100384.73;180608;1264;43792;-85
2023/11/19 02:02:44;;;;;;;;;;;;;;;3.93;100.00;100383.32;180449;1264;59392;-84
2023/11/19 02:06:50;;;;;;;;;;;;;;;3.86;100.00;100384.95;180397;1264;43869;-83
2023/11/19 02:10:57;;;;;;;;;;;;;;;3.80;100.00;100369.10;180505;1264;43841;-86
2023/11/19 02:15:00;;;;;;;;;;;;;;;3.72;100.00;100367.42;180608;1264;43646;-84
2023/11/19 02:19:03;;;;;;;;;;;;;;;3.74;100.00;100366.41;180540;1264;43760;-85
2023/11/19 02:23:06;;;;;;;;;;;;;;;3.75;100.00;100370.42;180658;1264;58083;-86
2023/11/19 02:27:31;;;;;;;;;;;;;;;3.78;100.00;100363.23;180635;1264;43896;-85
2023/11/19 02:31:35;;;;;;;;;;;;;;;3.90;100.00;100349.45;180733;1264;43665;-85
2023/11/19 02:35:38;;;;;;;;;;;;;;;3.99;100.00;100332.11;180798;1264;43707;-86
2023/11/19 02:39:41;;;;;;;;;;;;;;;4.05;100.00;100317.81;180657;1264;43493;-84
2023/11/19 02:43:44;;;;;;;;;;;;;;;4.09;100.00;100309.64;180607;1264;59076;-84
2023/11/19 02:47:47;;;;;;;;;;;;;;;4.11;100.00;100293.94;180573;1264;43831;-86
2023/11/19 02:51:50;;;;;;;;;;;;;;;4.12;100.00;100283.16;180638;1264;44003;-86
2023/11/19 02:56:00;;;;;;;;;;;;;;;4.11;100.00;100271.23;180635;1264;43650;-86
2023/11/19 03:00:12;;;;;;;;;;;;;;;4.07;100.00;100250.60;180545;1264;43726;-84
2023/11/19 03:04:16;;;;;;;;;;;;;;;3.96;100.00;100239.45;180627;1264;59349;-86
2023/11/19 03:08:20;;;;;;;;;;;;;;;3.84;100.00;100239.94;180481;1264;43661;-86
2023/11/19 03:12:26;;;;;;;;;;;;;;;3.82;100.00;100241.27;180510;1264;43573;-86
2023/11/19 03:16:29;;;;;;;;;;;;;;;3.72;100.00;100246.40;180595;1264;43720;-86
2023/11/19 03:20:32;;;;;;;;;;;;;;;3.78;100.00;100239.94;180459;1264;43855;-86
2023/11/19 03:24:35;;;;;;;;;;;;;;;3.76;100.00;100221.05;180482;1264;57066;-86
2023/11/19 03:28:38;;;;;;;;;;;;;;;3.68;100.00;100221.14;180602;1264;43464;-82
2023/11/19 03:32:41;;;;;;;;;;;;;;;3.66;100.00;100206.02;180610;1264;44019;-84
2023/11/19 03:36:45;;;;;;;;;;;;;;;3.65;100.00;100189.38;180635;1264;43553;-84
2023/11/19 03:40:49;;;;;;;;;;;;;;;3.53;100.00;100162.86;180641;1263;43828;-82
2023/11/19 03:44:52;;;;;;;;;;;;;;;3.51;100.00;100141.77;180604;1264;57777;-85
2023/11/19 03:48:55;;;;;;;;;;;;;;;3.52;100.00;100130.61;180637;1264;43817;-86
2023/11/19 03:52:59;;;;;;;;;;;;;;;3.49;100.00;100119.77;180644;1264;45978;-84
2023/11/19 03:57:03;;;;;;;;;;;;;;;3.48;100.00;100118.95;180437;1264;43665;-85
2023/11/19 04:01:10;;;;;;;;;;;;;;;3.54;100.00;100116.19;180648;1264;43518;-87
2023/11/19 04:05:14;;;;;;;;;;;;;;;3.58;100.00;100111.38;180484;1264;57806;-86
2023/11/19 04:09:17;;;;;;;;;;;;;;;3.63;100.00;100106.23;180507;1264;43597;-86
2023/11/19 04:13:20;;;;;;;;;;;;;;;3.69;100.00;100096.06;180544;1264;43815;-82
2023/11/19 04:17:23;;;;;;;;;;;;;;;3.71;100.00;100074.92;180550;1264;44080;-86
2023/11/19 04:21:26;;;;;;;;;;;;;;;3.70;100.00;100053.02;180610;1264;43709;-85
2023/11/19 04:25:29;;;;;;;;;;;;;;;3.78;100.00;100046.77;180612;1264;58120;-84
2023/11/19 04:29:32;;;;;;;;;;;;;;;3.85;100.00;100037.27;180609;1264;43810;-84
2023/11/19 04:33:35;;;;;;;;;;;;;;;4.02;100.00;100037.55;180630;1264;43530;-86
2023/11/19 04:37:39;;;;;;;;;;;;;;;4.08;100.00;100034.20;180563;1264;44006;-87
2023/11/19 04:41:45;;;;;;;;;;;;;;;4.16;100.00;100028.61;180596;1264;43957;-86
2023/11/19 04:45:48;;;;;;;;;;;;;;;4.27;100.00;100026.56;180427;1264;58443;-87
2023/11/19 04:49:51;;;;;;;;;;;;;;;4.31;100.00;100016.71;180464;1264;47053;-83
2023/11/19 04:53:54;;;;;;;;;;;;;;;4.34;100.00;100015.97;180540;1264;43830;-84
2023/11/19 04:57:57;;;;;;;;;;;;;;;4.39;100.00;100016.55;180567;1264;43839;-86
2023/11/19 05:02:00;;;;;;;;;;;;;;;4.41;100.00;100010.48;180597;1264;43577;-80
2023/11/19 05:06:04;;;;;;;;;;;;;;;4.36;100.00;100003.02;180595;1264;57093;-86
2023/11/19 05:10:07;;;;;;;;;;;;;;;4.35;100.00;99994.52;180482;1264;43584;-86
2023/11/19 05:14:10;;;;;;;;;;;;;;;4.26;100.00;99985.94;180598;1264;44209;-84
2023/11/19 05:18:13;;;;;;;;;;;;;;;4.20;100.00;99987.86;180589;1264;43566;-87
2023/11/19 05:22:17;;;;;;;;;;;;;;;4.22;100.00;99988.83;180501;1264;43536;-87
2023/11/19 05:26:21;;;;;;;;;;;;;;;4.23;100.00;99975.58;180572;1264;58100;-85
2023/11/19 05:30:24;;;;;;;;;;;;;;;4.31;100.00;99977.52;180408;1265;43834;-85
2023/11/19 05:34:27;;;;;;;;;;;;;;;4.38;100.00;99973.23;180597;1264;43878;-87
2023/11/19 05:38:30;;;;;;;;;;;;;;;4.33;100.00;99961.63;180586;1264;43639;-86
2023/11/19 05:42:33;;;;;;;;;;;;;;;4.34;100.00;99945.77;180585;1264;43552;-87
2023/11/19 05:46:40;;;;;;;;;;;;;;;4.31;100.00;99931.36;180584;1264;57483;-85
2023/11/19 05:50:44;;;;;;;;;;;;;;;4.18;100.00;99913.20;180561;1264;43562;-85
2023/11/19 05:54:51;;;;;;;;;;;;;;;4.19;100.00;99906.80;180592;1264;43687;-84
2023/11/19 05:58:55;;;;;;;;;;;;;;;4.31;100.00;99903.82;180520;1266;43790;-88
2023/11/19 06:02:58;;;;;;;;;;;;;;;4.31;100.00;99894.67;180637;1264;43738;-87
2023/11/19 06:07:02;;;;;;;;;;;;;;;4.35;100.00;99894.46;180606;1264;58654;-84
2023/11/19 06:11:05;;;;;;;;;;;;;;;4.46;100.00;99880.44;180550;1264;43580;-85
2023/11/19 06:15:08;;;;;;;;;;;;;;;4.45;100.00;99868.17;180599;1265;43629;-87
2023/11/19 06:19:11;;;;;;;;;;;;;;;4.59;100.00;99862.41;180483;1264;43957;-85
2023/11/19 06:23:15;;;;;;;;;;;;;;;4.64;100.00;99862.28;180583;1264;44016;-87
2023/11/19 06:27:18;;;;;;;;;;;;;;;4.71;100.00;99846.39;180622;1264;59077;-86
2023/11/19 06:31:21;;;;;;;;;;;;;;;4.72;100.00;99833.30;180652;1264;43636;-87
2023/11/19 06:35:24;;;;;;;;;;;;;;;4.73;100.00;99829.19;180656;1264;43876;-85
2023/11/19 06:39:28;;;;;;;;;;;;;;;4.80;100.00;99825.23;180753;1265;44038;-88
2023/11/19 06:43:33;;;;;;;;;;;;;;;4.79;100.00;99818.06;180652;1265;43468;-86
2023/11/19 06:47:39;;;;;;;;;;;;;;;4.80;100.00;99805.69;180629;1264;59540;-86
2023/11/19 06:51:43;;;;;;;;;;;;;;;4.82;100.00;99795.27;180658;1264;44092;-88
2023/11/19 06:55:46;;;;;;;;;;;;;;;4.83;100.00;99794.98;180462;1264;210465;-83
2023/11/19 06:59:50;;;;;;;;;;;;;;;4.84;100.00;99795.44;180546;1265;43831;-86
2023/11/19 07:03:53;;;;;;;;;;;;;;;4.93;100.00;99788.21;180680;1264;43838;-88
2023/11/19 07:07:56;;;;;;;;;;;;;;;4.98;100.00;99784.18;180587;1264;59055;-86
2023/11/19 07:12:01;;;;;;;;;;;;;;;5.05;100.00;99780.73;180652;1264;43828;-88
2023/11/19 07:16:04;;;;;;;;;;;;;;;5.13;100.00;99785.63;180586;1265;43768;-88
2023/11/19 07:20:08;;;;;;;;;;;;;;;5.10;100.00;99783.02;180610;1264;47051;-87
2023/11/19 07:24:13;;;;;;;;;;;;;;;5.10;100.00;99778.94;180472;1264;43855;-87
2023/11/19 07:28:16;;;;;;;;;;;;;;;5.10;100.00;99771.77;180604;1265;59132;-87
2023/11/19 07:32:19;;;;;;;;;;;;;;;4.91;100.00;99760.52;180604;1264;43784;-87
2023/11/19 07:36:22;;;;;;;;;;;;;;;4.97;100.00;99756.30;180619;1264;43673;-85
2023/11/19 07:40:25;;;;;;;;;;;;;;;4.93;100.00;99753.19;180552;1264;43841;-88
2023/11/19 07:44:30;;;;;;;;;;;;;;;5.03;100.00;99755.05;180639;1264;43621;-88
2023/11/19 07:48:34;;;;;;;;;;;;;;;5.13;100.00;99754.86;180571;1264;59188;-86
2023/11/19 07:52:38;;;;;;;;;;;;;;;5.20;100.00;99745.98;180551;1264;43788;-83
2023/11/19 07:56:41;;;;;;;;;;;;;;;5.19;100.00;99734.77;180784;1264;43479;-84
2023/11/19 08:00:44;;;;;;;;;;;;;;;5.13;100.00;99729.91;180747;1262;43672;-85
2023/11/19 08:04:50;;;;;;;;;;;;;;;5.06;100.00;99720.55;180762;1262;46107;-85
2023/11/19 08:08:53;;;;;;;;;;;;;;;5.20;100.00;99718.18;180777;1262;59360;-85
2023/11/19 08:12:56;;;;;;;;;;;;;;;5.26;100.00;99712.71;180825;1262;43567;-85
2023/11/19 08:16:59;;;;;;;;;;;;;;;5.28;100.00;99698.13;180718;1262;43649;-84
2023/11/19 08:21:04;;;;;;;;;;;;;;;5.33;100.00;99691.14;180820;1262;43864;-84
2023/11/19 08:25:08;;;;;;;;;;;;;;;5.38;100.00;99681.45;180924;1262;43505;-83
2023/11/19 08:29:11;;;;;;;;;;;;;;;5.37;100.00;99666.59;180865;1262;59396;-85
2023/11/19 08:33:15;;;;;;;;;;;;;;;5.44;100.00;99651.98;181031;1262;43520;-84
2023/11/19 08:37:20;;;;;;;;;;;;;;;5.37;100.00;99638.62;180937;1261;43625;-85
2023/11/19 08:41:25;;;;;;;;;;;;;;;5.50;100.00;99631.93;180843;1262;43498;-84
2023/11/19 08:45:30;;;;;;;;;;;;;;;5.54;100.00;99641.43;180838;1262;43460;-85
2023/11/19 08:49:33;;;;;;;;;;;;;;;5.60;100.00;99635.96;180889;1262;57735;-84
2023/11/19 08:53:36;;;;;;;;;;;;;;;5.64;100.00;99632.00;180924;1262;43450;-84
2023/11/19 08:57:39;;;;;;;;;;;;;;;5.69;100.00;99633.06;180894;1262;43528;-84
2023/11/19 09:01:42;;;;;;;;;;;;;;;5.71;100.00;99637.83;180769;1262;43681;-88
2023/11/19 09:05:45;;;;;;;;;;;;;;;5.76;100.00;99634.48;180859;1261;43908;-88
2023/11/19 09:09:49;;;;;;;;;;;;;;;5.76;100.00;99627.95;180845;1262;58003;-85
2023/11/19 09:13:52;;;;;;;;;;;;;;;5.77;100.00;99626.09;180773;1263;43919;-87
2023/11/19 09:17:56;;;;;;;;;;;;;;;5.75;100.00;99620.27;180762;1262;43926;-88
2023/11/19 09:21:59;;;;;;;;;;;;;;;5.70;100.00;99611.52;180815;1264;43733;-88
2023/11/19 09:26:02;;;;;;;;;;;;;;;5.72;100.00;99596.21;180885;1262;43769;-88
2023/11/19 09:30:05;;;;;;;;;;;;;;;5.69;100.00;99591.50;180787;1262;59455;-87
2023/11/19 09:34:08;;;;;;;;;;;;;;;5.68;100.00;99587.20;180833;1262;43588;-86
2023/11/19 09:38:17;;;;;;;;;;;;;;;5.68;100.00;99584.73;180880;1261;43805;-87
2023/11/19 09:42:20;;;;;;;;;;;;;;;5.65;100.00;99573.86;180830;1262;44083;-86
2023/11/19 09:46:24;;;;;;;;;;;;;;;5.67;100.00;99564.03;180883;1261;44038;-86
2023/11/19 09:50:27;;;;;;;;;;;;;;;5.71;100.00;99552.12;180772;1262;58335;-86
2023/11/19 09:54:31;;;;;;;;;;;;;;;5.75;100.00;99546.02;180832;1262;43905;-81
2023/11/19 09:58:34;;;;;;;;;;;;;;;5.78;100.00;99542.50;180736;1261;43652;-87
2023/11/19 10:02:38;;;;;;;;;;;;;;;5.89;100.00;99535.73;180816;1262;44577;-87
2023/11/19 10:06:42;;;;;;;;;;;;;;;5.96;100.00;99531.31;180766;1262;43826;-87
2023/11/19 10:10:45;;;;;;;;;;;;;;;6.06;100.00;99526.33;180725;1262;57805;-86
2023/11/19 10:14:51;;;;;;;;;;;;;;;6.12;100.00;99510.77;180858;1262;43746;-87
2023/11/19 10:18:55;;;;;;;;;;;;;;;6.17;100.00;99503.50;180722;1262;43948;-85
2023/11/19 10:22:58;;;;;;;;;;;;;;;6.13;100.00;99500.34;180798;1262;43582;-88
2023/11/19 10:27:03;;;;;;;;;;;;;;;6.12;100.00;99498.97;180890;1261;43563;-86
2023/11/19 10:31:07;;;;;;;;;;;;;;;6.15;100.00;99493.80;180874;1262;59285;-87
2023/11/19 10:35:12;;;;;;;;;;;;;;;6.18;100.00;99475.52;180784;1262;43888;-86
2023/11/19 10:39:15;;;;;;;;;;;;;;;6.13;100.00;99471.08;180993;1262;43863;-87
2023/11/19 10:43:19;;;;;;;;;;;;;;;6.11;100.00;99461.90;180821;1265;45591;-88
2023/11/19 10:47:23;;;;;;;;;;;;;;;6.17;100.00;99463.77;180734;1262;43650;-88
2023/11/19 10:51:29;;;;;;;;;;;;;;;6.24;100.00;99455.45;180839;1262;57909;-87
2023/11/19 10:55:35;;;;;;;;;;;;;;;6.26;100.00;99442.81;180792;1262;43595;-86
2023/11/19 10:59:38;;;;;;;;;;;;;;;6.35;100.00;99436.86;180891;1262;43759;-88
2023/11/19 11:03:42;;;;;;;;;;;;;;;6.47;100.00;99431.14;180884;1262;43472;-85
2023/11/19 11:07:46;;;;;;;;;;;;;;;6.72;100.00;99437.19;180894;1262;43617;-86
2023/11/19 11:11:49;;;;;;;;;;;;;;;6.95;100.00;99434.09;180814;1262;57736;-88
2023/11/19 11:15:54;;;;;;;;;;;;;;;7.17;100.00;99432.67;180892;1261;43513;-88
2023/11/19 11:19:58;;;;;;;;;;;;;;;7.37;100.00;99432.52;180928;1262;43779;-87
2023/11/19 11:24:01;;;;;;;;;;;;;;;7.48;100.00;99422.45;180876;1262;43668;-88
2023/11/19 11:28:14;;;;;;;;;;;;;;;7.44;100.00;99414.48;180858;1262;44154;-87
2023/11/19 11:32:36;;;;;;;;;;;;;;;7.42;100.00;99407.95;180850;1262;57768;-87
2023/11/19 11:42:08;;;;;;;;;;;;;;;7.74;100.00;99410.04;180411;1270;43684;-84
2023/11/19 11:46:30;;;;;;;;;;;;;;;8.12;100.00;99413.23;180343;1270;43660;-83
2023/11/19 11:50:35;;;;;;;;;;;;;;;8.38;100.00;99408.19;180117;1271;43680;-90
2023/11/19 11:54:41;;;;;;;;;;;;;;;8.59;100.00;99411.54;180266;1270;59781;-88
2023/11/19 11:58:47;;;;;;;;;;;;;;;8.75;100.00;99403.80;180014;1269;43936;-88
2023/11/19 12:02:51;;;;;;;;;;;;;;;8.91;100.00;99394.61;180218;1270;43891;-86
2023/11/19 12:07:14;;;;;;;;;;;;;;;9.05;100.00;99387.19;180312;1269;43715;-87
2023/11/19 12:11:19;;;;;;;;;;;;;;;9.23;100.00;99382.59;180186;1270;44116;-89
2023/11/19 12:15:25;;;;;;;;;;;;;;;9.35;100.00;99382.75;180112;1270;58281;-88
2023/11/19 12:19:29;;;;;;;;;;;;;;;9.46;100.00;99385.60;180850;1262;45888;-86
2023/11/19 12:23:34;;;;;;;;;;;;;;;9.60;100.00;99380.78;180980;1262;43774;-87
2023/11/19 12:27:42;;;;;;;;;;;;;;;9.77;100.00;99376.20;180917;1262;43666;-85
2023/11/19 12:31:55;;;;;;;;;;;;;;;9.92;100.00;99375.93;180927;1262;43903;-88
2023/11/19 12:36:16;;;;;;;;;;;;;;;10.11;100.00;99371.48;180882;1265;59561;-90
2023/11/19 12:40:22;;;;;;;;;;;;;;;10.23;100.00;99368.91;181038;1262;43626;-90
2023/11/19 12:44:26;;;;;;;;;;;;;;;10.36;100.00;99358.87;180931;1262;43726;-87
2023/11/19 12:48:30;;;;;;;;;;;;;;;10.39;100.00;99357.17;181013;1265;43555;-89
2023/11/19 12:52:36;;;;;;;;;;;;;;;10.45;100.00;99355.60;180936;1262;43583;-85
2023/11/19 12:56:41;;;;;;;;;;;;;;;10.53;100.00;99348.44;180863;1264;59223;-85
2023/11/19 13:00:45;;;;;;;;;;;;;;;10.60;100.00;99343.48;180937;1263;43574;-88
2023/11/19 13:04:49;;;;;;;;;;;;;;;10.76;100.00;99335.20;180958;1262;43626;-86
2023/11/19 13:08:55;;;;;;;;;;;;;;;10.85;100.00;99327.27;180823;1262;45354;-87
2023/11/19 13:13:02;;;;;;;;;;;;;;;10.94;100.00;99321.04;180929;1261;49526;-83
2023/11/19 13:17:06;;;;;;;;;;;;;;;11.02;100.00;99327.37;180828;1262;60196;-90
2023/11/19 13:21:10;;;;;;;;;;;;;;;11.05;100.00;99325.44;180878;1262;43870;-84
2023/11/19 13:25:14;;;;;;;;;;;;;;;11.15;100.00;99323.21;180931;1264;43545;-86
2023/11/19 13:29:20;;;;;;;;;;;;;;;11.28;100.00;99321.21;180875;1262;44224;-89
2023/11/19 13:33:41;;;;;;;;;;;;;;;11.39;100.00;99322.88;180982;1262;43428;-89
2023/11/19 13:37:52;;;;;;;;;;;;;;;11.50;100.00;99327.71;181022;1262;59050;-84
2023/11/19 13:41:59;;;;;;;;;;;;;;;11.60;100.00;99329.25;181000;1262;43648;-90
2023/11/19 13:46:10;;;;;;;;;;;;;;;11.62;100.00;99327.34;181046;1262;43768;-87
2023/11/19 14:00:24;;;;;;;;;;;;;;;11.60;100.00;99336.34;181068;1264;60745;-62
2023/11/19 14:04:27;;;;;;;;;;;;;;;11.61;100.00;99341.59;181152;1264;43310;-61
2023/11/19 14:08:30;;;;;;;;;;;;;;;11.61;100.00;99341.66;181217;1265;42786;-62
2023/11/19 14:12:37;;;;;;;;;;;;;;;11.60;100.00;99344.17;181148;1264;42860;-64
2023/11/19 14:16:42;;;;;;;;;;;;;;;11.60;100.00;99347.90;181069;1264;42788;-61
2023/11/19 14:20:46;;;;;;;;;;;;;;;11.54;100.00;99349.75;181106;1264;57948;-61
2023/11/19 14:24:50;;;;;;;;;;;;;;;11.46;100.00;99344.66;181020;1266;42972;-62
2023/11/19 14:28:54;;;;;;;;;;;;;;;11.37;100.00;99344.15;181083;1264;43260;-64
2023/11/19 14:33:25;;;;;;;;;;;;;;;11.31;100.00;99344.52;181083;1264;43239;-62
2023/11/19 14:37:30;;;;;;;;;;;;;;;11.27;100.00;99338.52;181132;1264;43569;-61
2023/11/19 14:41:38;;;;;;;;;;;;;;;11.27;100.00;99339.45;181152;1264;58121;-62
2023/11/19 14:45:41;;;;;;;;;;;;;;;11.21;100.00;99345.13;181186;1264;42816;-62
2023/11/19 14:49:51;;;;;;;;;;;;;;;11.20;100.00;99346.48;181163;1264;43199;-62
2023/11/19 14:53:55;;;;;;;;;;;;;;;11.18;100.00;99348.16;181048;1264;43659;-62
2023/11/19 14:57:58;;;;;;;;;;;;;;;11.18;100.00;99339.12;181126;1264;43420;-62
2023/11/19 15:02:11;;;;;;;;;;;;;;;11.06;100.00;99344.53;181013;1264;57864;-62
2023/11/19 15:06:32;;;;;;;;;;;;;;;10.93;100.00;99351.99;181128;1264;43685;-63
2023/11/19 15:10:35;;;;;;;;;;;;;;;10.76;100.00;99348.52;181003;1266;43430;-63
2023/11/19 15:14:38;;;;;;;;;;;;;;;10.66;100.00;99351.19;181033;1264;42924;-62
2023/11/19 15:18:41;;;;;;;;;;;;;;;10.57;100.00;99359.05;181114;1264;42934;-62
2023/11/19 15:22:44;;;;;;;;;;;;;;;10.44;100.00;99359.02;181042;1264;57900;-63
2023/11/19 15:26:53;;;;;;;;;;;;;;;10.30;100.00;99363.20;181065;1264;42808;-64
2023/11/19 15:31:16;;;;;;;;;;;;;;;10.19;100.00;99368.10;181145;1264;42822;-62
2023/11/19 15:35:19;;;;;;;;;;;;;;;10.08;100.00;99365.76;181063;1264;43434;-62
2023/11/19 15:39:33;;;;;;;;;;;;;;;10.03;100.00;99369.44;181143;1264;42886;-61
2023/11/19 15:43:36;;;;;;;;;;;;;;;9.97;100.00;99367.34;181139;1265;58707;-62
2023/11/19 15:47:39;;;;;;;;;;;;;;;9.94;100.00;99370.78;181088;1264;43234;-62
2023/11/19 15:51:42;;;;;;;;;;;;;;;9.99;100.00;99373.50;181139;1265;43607;-62
2023/11/19 15:55:47;;;;;;;;;;;;;;;10.06;100.00;99373.08;181097;1264;43142;-62
2023/11/19 15:59:51;;;;;;;;;;;;;;;10.14;100.00;99374.61;181087;1264;43076;-62
2023/11/19 16:03:56;;;;;;;;;;;;;;;10.16;100.00;99368.36;181068;1264;59613;-62
2023/11/19 16:08:00;;;;;;;;;;;;;;;10.21;100.00;99369.45;181075;1264;42913;-62
2023/11/19 16:12:03;;;;;;;;;;;;;;;10.22;100.00;99375.41;181095;1264;42799;-62
2023/11/19 16:16:06;;;;;;;;;;;;;;;10.26;100.00;99375.71;181137;1264;42974;-62
2023/11/19 16:20:16;;;;;;;;;;;;;;;10.30;100.00;99377.84;181144;1264;42873;-63
2023/11/19 16:24:19;;;;;;;;;;;;;;;10.32;100.00;99377.70;181116;1264;56950;-63
2023/11/19 16:28:23;;;;;;;;;;;;;;;10.36;100.00;99378.23;181128;1264;42892;-62
2023/11/19 16:32:27;;;;;;;;;;;;;;;10.42;100.00;99373.03;181122;1264;42897;-62
2023/11/19 16:36:30;;;;;;;;;;;;;;;10.47;100.00;99372.40;181058;1264;42812;-63
2023/11/19 16:40:38;;;;;;;;;;;;;;;10.50;100.00;99369.84;181107;1264;43511;-63
2023/11/19 16:44:43;;;;;;;;;;;;;;;10.53;100.00;99367.21;181060;1264;57841;-62
2023/11/19 16:48:50;;;;;;;;;;;;;;;10.55;100.00;99361.70;181084;1264;43542;-62
2023/11/19 16:52:55;;;;;;;;;;;;;;;10.57;100.00;99360.77;181052;1264;43532;-63
2023/11/19 16:57:02;;;;;;;;;;;;;;;10.57;100.00;99366.14;181068;1265;43528;-62
2023/11/19 17:01:05;;;;;;;;;;;;;;;10.58;100.00;99368.11;181135;1265;43042;-62
2023/11/19 17:05:15;;;;;;;;;;;;;;;10.61;100.00;99371.58;180995;1267;59960;-61
2023/11/19 17:09:18;;;;;;;;;;;;;;;10.62;100.00;99373.59;181065;1264;42860;-61
2023/11/19 17:13:21;;;;;;;;;;;;;;;10.61;100.00;99370.34;181121;1264;42820;-62
2023/11/19 17:17:25;;;;;;;;;;;;;;;10.65;100.00;99367.33;181064;1264;43666;-62
2023/11/19 17:21:28;;;;;;;;;;;;;;;10.62;100.00;99365.61;181097;1266;43574;-61
2023/11/19 17:25:33;;;;;;;;;;;;;;;10.59;100.00;99365.54;181066;1265;59301;-61
2023/11/19 17:29:37;;;;;;;;;;;;;;;10.62;100.00;99368.80;181099;1265;42843;-60
2023/11/19 17:33:40;;;;;;;;;;;;;;;10.64;100.00;99369.03;181122;1264;43498;-60
2023/11/19 17:37:43;;;;;;;;;;;;;;;10.67;100.00;99374.23;181036;1267;43557;-60
2023/11/19 17:41:47;;;;;;;;;;;;;;;10.68;100.00;99369.70;181050;1266;43541;-62
2023/11/19 17:45:50;;;;;;;;;;;;;;;10.69;100.00;99373.63;181097;1265;58221;-61
2023/11/19 17:49:54;;;;;;;;;;;;;;;10.68;100.00;99374.85;181101;1264;43489;-60
2023/11/19 17:53:57;;;;;;;;;;;;;;;10.57;100.00;99377.61;181114;1264;43179;-61
2023/11/19 17:57:59;;;;;;;;;;;;;;;10.46;100.00;99382.56;181115;1264;42880;-61
2023/11/19 18:02:04;;;;;;;;;;;;;;;10.46;100.00;99383.86;181118;1265;42977;-60
2023/11/19 18:06:16;;;;;;;;;;;;;;;10.49;100.00;99381.40;181086;1264;59679;-61
2023/11/19 18:10:19;;;;;;;;;;;;;;;10.51;100.00;99381.73;180965;1267;43554;-62
2023/11/19 18:14:23;;;;;;;;;;;;;;;10.57;100.00;99376.01;181031;1269;43516;-61
2023/11/19 18:18:26;;;;;;;;;;;;;;;10.59;100.00;99377.29;181135;1264;43168;-60
2023/11/19 18:22:30;;;;;;;;;;;;;;;10.63;100.00;99374.23;181111;1264;43464;-60
2023/11/19 18:26:34;;;;;;;;;;;;;;;10.65;100.00;99372.42;181067;1269;58865;-61
2023/11/19 18:30:40;;;;;;;;;;;;;;;10.71;100.00;99370.45;181101;1264;42822;-61
2023/11/19 18:34:44;;;;;;;;;;;;;;;10.81;100.00;99368.60;181129;1265;42802;-61
2023/11/19 18:38:47;;;;;;;;;;;;;;;10.91;100.00;99366.58;181128;1264;42945;-61
2023/11/19 18:42:50;;;;;;;;;;;;;;;10.99;100.00;99365.92;181154;1264;42751;-63
2023/11/19 18:47:02;;;;;;;;;;;;;;;11.03;100.00;99363.80;181112;1264;58672;-61
2023/11/19 18:51:06;;;;;;;;;;;;;;;11.08;100.00;99362.58;181203;1264;42864;-60
2023/11/19 18:55:09;;;;;;;;;;;;;;;11.14;100.00;99361.51;181046;1267;163894;-62
2023/11/19 18:59:47;;;;;;;;;;;;;;;11.14;100.00;99357.08;181067;1264;44044;-61
2023/11/19 19:03:51;;;;;;;;;;;;;;;11.12;100.00;99365.02;181115;1265;43477;-61
2023/11/19 19:07:56;;;;;;;;;;;;;;;11.14;100.00;99366.49;181127;1265;57932;-60
2023/11/19 19:11:59;;;;;;;;;;;;;;;11.11;100.00;99370.10;181091;1269;42863;-61
2023/11/19 19:16:07;;;;;;;;;;;;;;;11.14;100.00;99367.73;181095;1265;42788;-60
2023/11/19 19:20:11;;;;;;;;;;;;;;;11.16;100.00;99367.48;180988;1265;43543;-62
2023/11/19 19:24:15;;;;;;;;;;;;;;;11.18;100.00;99367.48;181122;1267;42801;-62
2023/11/19 19:28:17;;;;;;;;;;;;;;;11.19;100.00;99367.70;181099;1266;58157;-61
2023/11/19 19:32:25;;;;;;;;;;;;;;;11.23;100.00;99372.88;181113;1264;43512;-64
2023/11/19 19:36:28;;;;;;;;;;;;;;;11.22;100.00;99379.85;181171;1264;42976;-64
2023/11/19 19:40:32;;;;;;;;;;;;;;;11.14;100.00;99388.13;180996;1266;42997;-62
2023/11/19 19:44:36;;;;;;;;;;;;;;;11.08;100.00;99390.07;181065;1266;42792;-61
2023/11/19 19:48:40;;;;;;;;;;;;;;;11.05;100.00;99387.10;181014;1267;58248;-61
2023/11/19 19:52:43;;;;;;;;;;;;;;;10.97;100.00;99386.75;181068;1266;42999;-60
2023/11/19 19:56:46;;;;;;;;;;;;;;;10.91;100.00;99387.85;181096;1267;42769;-61
2023/11/19 20:00:51;;;;;;;;;;;;;;;10.88;100.00;99389.02;181091;1267;43914;-61
2023/11/19 20:04:55;;;;;;;;;;;;;;;10.86;100.00;99399.88;181122;1266;43448;-61
2023/11/19 20:09:00;;;;;;;;;;;;;;;10.82;100.00;99400.45;181189;1264;59194;-62
2023/11/19 20:13:09;;;;;;;;;;;;;;;10.83;100.00;99398.58;181038;1267;42853;-60
2023/11/19 20:17:12;;;;;;;;;;;;;;;10.91;100.00;99398.38;181021;1265;43567;-62
2023/11/19 20:21:16;;;;;;;;;;;;;;;10.96;100.00;99398.21;181104;1265;43005;-61
2023/11/19 20:25:20;;;;;;;;;;;;;;;11.08;100.00;99399.41;181122;1267;43246;-60
2023/11/19 20:29:23;;;;;;;;;;;;;;;11.17;100.00;99410.56;181013;1267;59789;-60
2023/11/19 20:33:36;;;;;;;;;;;;;;;11.21;100.00;99413.52;181084;1266;43467;-61
2023/11/19 20:37:38;;;;;;;;;;;;;;;11.18;100.00;99410.28;181140;1264;42866;-64
2023/11/19 20:41:42;;;;;;;;;;;;;;;11.20;100.00;99415.19;181138;1264;43599;-62
2023/11/19 20:45:45;;;;;;;;;;;;;;;11.18;100.00;99421.99;181127;1265;43497;-61
2023/11/19 20:49:50;;;;;;;;;;;;;;;11.04;100.00;99426.32;181163;1264;57689;-62
2023/11/19 20:53:55;;;;;;;;;;;;;;;10.89;100.00;99436.45;181030;1265;43042;-62
2023/11/19 20:58:19;;;;;;;;;;;;;;;10.80;100.00;99429.67;181159;1265;43243;-61
2023/11/19 21:02:23;;;;;;;;;;;;;;;10.75;100.00;99433.51;181066;1265;42911;-62